• Join FlightAware (Why Join?)
  • Login
  • US Flag 
07:13PM EDT


 

Airport Tracker/Info


-or-


 

Live Flight TrackerFlight Track Log ✈ AAL2360 ✈ 02-Jun-2013 ✈ KDFW - KORD

Flight Track Log - Related Links

Times and Time Zones

All times are in EDT time to prevent confusion due to time zone crossing. See the AAL2360 flight status page for this flight to view local times or setup timezone preferences in your user account.

Time Position Orientation Groundspeed Altitude Reporting Facility
EDT Latitude Longitude Course Direction KTS MPH feet Rate Location/Type
03:37PM 32.9167 -97.0333 357° North 183 211 1,200  Level Dallas / Fort Worth TRACON
03:38PM 33.0000 -97.0167 10° North 240 276 4,300 2,340 Climbing Dallas / Fort Worth TRACON
03:39PM 32.7590 -96.8550 77° East  Level FlightAware Approximate
03:40PM 32.8510 -96.8000 North  Level FlightAware Approximate
03:40PM 33.1083 -97.0142 North 250 288 8,600  Level Fort Worth Center
03:41PM 32.9696 -96.8000 North  Level FlightAware Approximate
03:41PM 33.1875 -96.9667 27° Northeast 270 311 10,400  Level Fort Worth Center
03:42PM 33.0882 -96.8015 357° North  Level FlightAware Approximate
03:42PM 33.2708 -96.9239 23° Northeast 320 368 11,700  Level Fort Worth Center
03:43PM 33.3769 -96.8611 26° Northeast 370 426 14,400 2,400 Climbing Fort Worth Center
03:44PM 33.4664 -96.8133 24° Northeast 385 443 16,500 2,100 Climbing Fort Worth Center
03:45PM 33.5767 -96.7428 28° Northeast 393 452 18,600 1,920 Climbing Fort Worth Center
03:46PM 33.6683 -96.6822 29° Northeast 404 465 20,400 1,500 Climbing Fort Worth Center
03:47PM 33.7867 -96.6064 28° Northeast 416 479 21,700 1,500 Climbing Fort Worth Center
03:48PM 33.8969 -96.5353 28° Northeast 428 493 23,400 1,500 Climbing Fort Worth Center
03:49PM 34.0050 -96.4614 30° Northeast 433 498 24,700 1,260 Climbing Fort Worth Center
03:50PM 34.0919 -96.3928 33° Northeast 446 513 26,000 1,200 Climbing Fort Worth Center
03:51PM 34.2017 -96.2911 37° Northeast 452 520 27,100 1,200 Climbing Fort Worth Center
03:52PM 34.3072 -96.1967 36° Northeast 463 533 28,400 900 Climbing Fort Worth Center
03:53PM 34.4147 -96.0969 37° Northeast 475 547 29,000 300 Climbing Fort Worth Center
03:54PM 34.5222 -96.0019 36° Northeast 480 552 29,000  Level Fort Worth Center
03:55PM 34.6442 -95.8914 37° Northeast 480 552 29,000  Level Fort Worth Center
03:56PM 34.7514 -95.7936 37° Northeast 480 552 29,000  Level Fort Worth Center
03:58PM 34.9131 -95.6497 36° Northeast 482 555 29,000  Level Kansas City Center
03:59PM 35.0189 -95.5542 36° Northeast 477 549 29,000  Level Kansas City Center
04:00PM 35.1244 -95.4569 37° Northeast 475 547 29,000  Level Kansas City Center
04:00PM 35.1844 -95.4103 32° Northeast 473 544 29,000  Level Memphis Center
04:01PM 35.2886 -95.3147 37° Northeast 473 544 29,000  Level Memphis Center
04:02PM 35.3925 -95.2189 37° Northeast 473 544 29,000  Level Memphis Center
04:03PM 35.4942 -95.1231 37° Northeast 467 537 29,000  Level Memphis Center
04:04PM 35.5958 -95.0267 38° Northeast 462 532 29,000  Level Memphis Center
04:05PM 35.6619 -94.9625 38° Northeast 462 532 29,000  Level Kansas City Center
04:06PM 35.7650 -94.8658 37° Northeast 464 534 29,000  Level Kansas City Center
04:06PM 35.8031 -94.8336 34° Northeast 462 532 29,000  Level Memphis Center
04:07PM 35.9044 -94.7392 37° Northeast 462 532 29,000  Level Memphis Center
04:09PM 36.0925 -94.5597 38° Northeast 463 533 29,000  Level Kansas City Center
04:10PM 36.1950 -94.4625 37° Northeast 463 533 29,000  Level Kansas City Center
04:11PM 36.2986 -94.3642 37° Northeast 467 537 29,000  Level Kansas City Center
04:12PM 36.4017 -94.2664 37° Northeast 468 539 29,000  Level Kansas City Center
04:13PM 36.5025 -94.1700 38° Northeast 463 533 29,000  Level Kansas City Center
04:14PM 36.6239 -94.0522 38° Northeast 461 531 29,000  Level Kansas City Center
04:15PM 36.7258 -93.9544 38° Northeast 462 532 29,000  Level Kansas City Center
04:16PM 36.8278 -93.8550 38° Northeast 463 533 29,000  Level Kansas City Center
04:17PM 36.9281 -93.7581 38° Northeast 471 542 29,000  Level Kansas City Center
04:18PM 37.0303 -93.6533 39° Northeast 473 544 29,000  Level Kansas City Center
04:19PM 37.1567 -93.5317 37° Northeast 475 547 29,000  Level Kansas City Center
04:20PM 37.2611 -93.4292 38° Northeast 476 548 29,000  Level Kansas City Center
04:21PM 37.3686 -93.3269 37° Northeast 479 551 29,000  Level Kansas City Center
04:23PM 37.4736 -93.2253 38° Northeast 475 547 29,000  Level Kansas City Center
04:24PM 37.5817 -93.1264 36° Northeast 476 548 29,000  Level Kansas City Center
04:25PM 37.6917 -93.0269 36° Northeast 481 554 29,000  Level Kansas City Center
04:26PM 37.7983 -92.9250 37° Northeast 479 551 29,000  Level Kansas City Center
04:27PM 37.9061 -92.8258 36° Northeast 477 549 29,000  Level Kansas City Center
04:28PM 38.0339 -92.7042 37° Northeast 483 556 29,000  Level Kansas City Center
04:29PM 38.1425 -92.6028 36° Northeast 485 558 29,000  Level Kansas City Center
04:30PM 38.2581 -92.4936 37° Northeast 484 557 29,000  Level Kansas City Center
04:31PM 38.3669 -92.3900 37° Northeast 483 556 29,000  Level Kansas City Center
04:32PM 38.4744 -92.2867 37° Northeast 481 554 29,000  Level Kansas City Center
04:33PM 38.5819 -92.1833 37° Northeast 480 552 29,000  Level Kansas City Center
04:34PM 38.6886 -92.0794 37° Northeast 480 552 29,000  Level Kansas City Center
04:35PM 38.7961 -91.9761 37° Northeast 480 552 29,000  Level Kansas City Center
04:36PM 38.9028 -91.8711 37° Northeast 481 554 29,000  Level Kansas City Center
04:37PM 39.0297 -91.7453 38° Northeast 480 552 29,000  Level Kansas City Center
04:38PM 39.1256 -91.6517 37° Northeast 481 554 29,000  Level Kansas City Center
04:39PM 39.2319 -91.5475 37° Northeast 480 552 29,000  Level Kansas City Center
04:40PM 39.3411 -91.4422 37° Northeast 487 560 29,000  Level Kansas City Center
04:41PM 39.4697 -91.3153 37° Northeast 485 558 29,000  Level Kansas City Center
04:42PM 39.5758 -91.2097 37° Northeast 481 554 29,000  Level Kansas City Center
04:43PM 39.6808 -91.1050 37° Northeast 479 551 29,000  Level Kansas City Center
04:44PM 39.7894 -90.9961 38° Northeast 478 550 29,000  Level Kansas City Center
04:45PM 39.8875 -90.9000 37° Northeast 476 548 29,000  Level Kansas City Center
04:46PM 40.0142 -90.7711 38° Northeast 480 552 29,000  Level Kansas City Center
04:47PM 40.1183 -90.6631 38° Northeast 478 550 29,000  Level Kansas City Center
04:48PM 40.2231 -90.5553 38° Northeast 479 551 29,000  Level Kansas City Center
04:49PM 40.3136 -90.4253 48° Northeast 481 554 29,000  Level Kansas City Center
04:50PM 40.4067 -90.2964 47° Northeast 484 557 29,000 -360 Level Kansas City Center
04:51PM 40.4622 -90.2192 47° Northeast 484 557 28,500 -900 Descending Chicago Center
04:52PM 40.5528 -90.0872 48° Northeast 482 555 27,700 -900 Descending Chicago Center
04:53PM 40.6431 -89.9567 48° Northeast 484 557 26,700 -840 Descending Chicago Center
04:54PM 40.7339 -89.8300 47° Northeast 480 552 26,000 -720 Descending Chicago Center
04:55PM 40.8264 -89.7028 46° Northeast 480 552 25,300 -840 Descending Chicago Center
04:56PM 40.9353 -89.5475 47° Northeast 483 556 24,300 -660 Descending Chicago Center
04:57PM 41.0169 -89.4306 47° Northeast 475 547 24,000 -900 Descending Chicago Center
04:58PM 41.1064 -89.3022 47° Northeast 474 545 22,500 -1,920 Descending Chicago Center
04:59PM 41.1983 -89.1700 47° Northeast 455 524 20,100 -2,280 Descending Chicago Center
05:01PM 41.3013 -89.0103 49° Northeast  Level FlightAware Approximate
05:01PM 41.3517 -88.9439 49° Northeast 405 466 15,600  Level Chicago Center
05:02PM 41.4392 -88.8164 48° Northeast 392 451 12,900 -2,280 Descending Chicago Center
05:03PM 41.5094 -88.7103 48° Northeast 386 444 11,000 -960 Descending Chicago Center
05:04PM 41.5564 -88.5928 62° Northeast 365 420 11,000  Level Chicago Center
05:05PM 41.6042 -88.4733 62° Northeast 366 421 11,000  Level Chicago Center
05:06PM 41.6650 -88.3681 52° Northeast 359 413 11,000  Level Chicago Center
05:07PM 41.7267 -88.2619 52° Northeast 360 414 11,000  Level Chicago Center
05:08PM 41.8003 -88.1358 52° Northeast 360 414 11,000 -300 Level Chicago Center
05:10PM 41.8517 -88.0456 53° Northeast 312 359 10,400 -1,020 Descending Chicago Center
05:11PM 41.8858 -87.9500 64° Northeast 298 343 9,000 -1,500 Descending Chicago Center
05:11PM 41.8833 -87.9000 94° East 303 349 8,300 -1,500 Descending Chicago TRACON
05:12PM 41.8844 -87.8403 89° East 296 341 7,500 -960 Descending Chicago Center
05:13PM 41.8831 -87.7306 91° East 294 338 6,700 -1,200 Descending Chicago Center
05:14PM 41.8833 -87.6244 90° East 289 333 5,100 -840 Descending Chicago Center
05:15PM 41.8844 -87.5006 89° East 284 327 5,000 -60 Descending Chicago Center
05:16PM 41.8839 -87.3997 90° East 279 321 5,000  Level Chicago Center
05:17PM 41.9292 -87.3622 32° Northeast 245 282 5,000  Level Chicago Center
05:18PM 41.9669 -87.4106 316° Northwest 216 249 5,000  Level Chicago Center
05:19PM 41.9697 -87.4792 273° West 200 230 5,000  Level Chicago Center
05:20PM 41.9708 -87.5528 271° West 181 208 5,000 -120 Level Chicago Center
05:21PM 41.9697 -87.6117 269° West 171 197 4,800 -240 Descending Chicago Center